sensor_id;sensor_type;location;lat;lon;timestamp;P1;durP1;ratioP1;P2;durP2;ratioP2
47778;SDS011;33538;48.432;11.350;2022-11-23T00:00:05;3.13;;;1.63;;
47778;SDS011;33538;48.432;11.350;2022-11-23T00:02:32;3.28;;;1.85;;
47778;SDS011;33538;48.432;11.350;2022-11-23T00:04:59;2.25;;;1.42;;
47778;SDS011;33538;48.432;11.350;2022-11-23T00:07:26;2.13;;;1.48;;
47778;SDS011;33538;48.432;11.350;2022-11-23T00:09:52;4.90;;;1.80;;
47778;SDS011;33538;48.432;11.350;2022-11-23T00:12:19;7.57;;;2.00;;
47778;SDS011;33538;48.432;11.350;2022-11-23T00:14:47;2.47;;;1.50;;
47778;SDS011;33538;48.432;11.350;2022-11-23T00:17:14;3.50;;;1.35;;
47778;SDS011;33538;48.432;11.350;2022-11-23T00:19:41;3.33;;;1.85;;
47778;SDS011;33538;48.432;11.350;2022-11-23T00:22:07;5.88;;;1.85;;
47778;SDS011;33538;48.432;11.350;2022-11-23T00:24:34;2.45;;;1.58;;
47778;SDS011;33538;48.432;11.350;2022-11-23T00:27:01;4.28;;;1.50;;
47778;SDS011;33538;48.432;11.350;2022-11-23T00:29:28;4.95;;;1.63;;
47778;SDS011;33538;48.432;11.350;2022-11-23T00:31:56;3.35;;;1.52;;
47778;SDS011;33538;48.432;11.350;2022-11-23T00:34:23;3.15;;;1.50;;
47778;SDS011;33538;48.432;11.350;2022-11-23T00:36:50;2.80;;;1.38;;
47778;SDS011;33538;48.432;11.350;2022-11-23T00:39:17;3.60;;;1.60;;
47778;SDS011;33538;48.432;11.350;2022-11-23T00:41:44;5.63;;;1.33;;
47778;SDS011;33538;48.432;11.350;2022-11-23T00:44:10;5.03;;;1.80;;
47778;SDS011;33538;48.432;11.350;2022-11-23T00:46:37;3.67;;;1.50;;
47778;SDS011;33538;48.432;11.350;2022-11-23T00:49:05;1.67;;;1.30;;
47778;SDS011;33538;48.432;11.350;2022-11-23T00:51:33;2.97;;;2.00;;
47778;SDS011;33538;48.432;11.350;2022-11-23T00:54:01;1.98;;;1.40;;
47778;SDS011;33538;48.432;11.350;2022-11-23T00:56:29;3.60;;;1.50;;
47778;SDS011;33538;48.432;11.350;2022-11-23T00:58:57;2.13;;;1.60;;
47778;SDS011;33538;48.432;11.350;2022-11-23T01:01:25;2.15;;;1.63;;
47778;SDS011;33538;48.432;11.350;2022-11-23T01:03:54;5.82;;;1.63;;
47778;SDS011;33538;48.432;11.350;2022-11-23T01:06:23;3.83;;;1.38;;
47778;SDS011;33538;48.432;11.350;2022-11-23T01:08:52;2.38;;;1.77;;
47778;SDS011;33538;48.432;11.350;2022-11-23T01:11:20;8.00;;;1.52;;
47778;SDS011;33538;48.432;11.350;2022-11-23T01:13:48;3.03;;;1.33;;
47778;SDS011;33538;48.432;11.350;2022-11-23T01:16:16;3.33;;;1.58;;
47778;SDS011;33538;48.432;11.350;2022-11-23T01:18:50;4.53;;;1.77;;
47778;SDS011;33538;48.432;11.350;2022-11-23T01:21:18;2.08;;;1.48;;
47778;SDS011;33538;48.432;11.350;2022-11-23T01:23:46;2.72;;;1.55;;
47778;SDS011;33538;48.432;11.350;2022-11-23T01:26:13;2.25;;;1.35;;
47778;SDS011;33538;48.432;11.350;2022-11-23T01:28:40;3.45;;;1.45;;
47778;SDS011;33538;48.432;11.350;2022-11-23T01:31:08;1.58;;;1.23;;
47778;SDS011;33538;48.432;11.350;2022-11-23T01:33:36;2.28;;;1.20;;
47778;SDS011;33538;48.432;11.350;2022-11-23T01:36:10;4.70;;;2.00;;
47778;SDS011;33538;48.432;11.350;2022-11-23T01:38:37;4.95;;;1.73;;
47778;SDS011;33538;48.432;11.350;2022-11-23T01:41:05;1.90;;;1.30;;
47778;SDS011;33538;48.432;11.350;2022-11-23T01:43:33;4.88;;;1.90;;
47778;SDS011;33538;48.432;11.350;2022-11-23T01:46:00;3.30;;;1.83;;
47778;SDS011;33538;48.432;11.350;2022-11-23T01:48:29;3.40;;;1.77;;
47778;SDS011;33538;48.432;11.350;2022-11-23T01:50:59;1.65;;;1.35;;
47778;SDS011;33538;48.432;11.350;2022-11-23T01:53:28;2.58;;;1.50;;
47778;SDS011;33538;48.432;11.350;2022-11-23T01:55:57;3.55;;;1.52;;
47778;SDS011;33538;48.432;11.350;2022-11-23T01:58:27;2.30;;;1.33;;
47778;SDS011;33538;48.432;11.350;2022-11-23T02:00:57;2.45;;;1.45;;
47778;SDS011;33538;48.432;11.350;2022-11-23T02:03:24;4.38;;;1.60;;
47778;SDS011;33538;48.432;11.350;2022-11-23T02:05:58;4.20;;;1.48;;
47778;SDS011;33538;48.432;11.350;2022-11-23T02:08:27;2.65;;;1.30;;
47778;SDS011;33538;48.432;11.350;2022-11-23T02:10:56;3.60;;;1.52;;
47778;SDS011;33538;48.432;11.350;2022-11-23T02:13:24;4.25;;;1.67;;
47778;SDS011;33538;48.432;11.350;2022-11-23T02:15:54;2.53;;;1.73;;
47778;SDS011;33538;48.432;11.350;2022-11-23T02:18:23;2.25;;;1.40;;
47778;SDS011;33538;48.432;11.350;2022-11-23T02:20:52;5.40;;;1.88;;
47778;SDS011;33538;48.432;11.350;2022-11-23T02:23:23;2.50;;;1.45;;
47778;SDS011;33538;48.432;11.350;2022-11-23T02:26:00;2.17;;;1.60;;
47778;SDS011;33538;48.432;11.350;2022-11-23T02:28:31;3.17;;;1.48;;
47778;SDS011;33538;48.432;11.350;2022-11-23T02:31:01;2.20;;;1.40;;
47778;SDS011;33538;48.432;11.350;2022-11-23T02:33:28;5.70;;;2.15;;
47778;SDS011;33538;48.432;11.350;2022-11-23T02:35:55;3.90;;;1.50;;
47778;SDS011;33538;48.432;11.350;2022-11-23T02:38:24;2.17;;;1.52;;
47778;SDS011;33538;48.432;11.350;2022-11-23T02:40:53;3.15;;;1.70;;
47778;SDS011;33538;48.432;11.350;2022-11-23T02:43:22;2.65;;;1.50;;
47778;SDS011;33538;48.432;11.350;2022-11-23T02:45:49;4.28;;;1.63;;
47778;SDS011;33538;48.432;11.350;2022-11-23T02:48:19;5.05;;;1.52;;
47778;SDS011;33538;48.432;11.350;2022-11-23T02:50:46;4.05;;;1.85;;
47778;SDS011;33538;48.432;11.350;2022-11-23T02:53:12;1.55;;;1.13;;
47778;SDS011;33538;48.432;11.350;2022-11-23T02:55:39;4.05;;;1.50;;
47778;SDS011;33538;48.432;11.350;2022-11-23T02:58:06;2.65;;;1.20;;
47778;SDS011;33538;48.432;11.350;2022-11-23T03:00:35;2.75;;;1.55;;
47778;SDS011;33538;48.432;11.350;2022-11-23T03:03:02;2.45;;;1.50;;
47778;SDS011;33538;48.432;11.350;2022-11-23T03:05:29;7.22;;;1.75;;
47778;SDS011;33538;48.432;11.350;2022-11-23T03:07:56;3.15;;;1.77;;
47778;SDS011;33538;48.432;11.350;2022-11-23T03:10:23;3.22;;;1.77;;
47778;SDS011;33538;48.432;11.350;2022-11-23T03:12:52;4.47;;;1.27;;
47778;SDS011;33538;48.432;11.350;2022-11-23T03:15:19;2.45;;;1.65;;
47778;SDS011;33538;48.432;11.350;2022-11-23T03:17:47;3.05;;;1.60;;
47778;SDS011;33538;48.432;11.350;2022-11-23T03:20:14;2.17;;;1.30;;
47778;SDS011;33538;48.432;11.350;2022-11-23T03:22:41;2.20;;;1.50;;
47778;SDS011;33538;48.432;11.350;2022-11-23T03:25:08;3.17;;;1.60;;
47778;SDS011;33538;48.432;11.350;2022-11-23T03:27:36;2.13;;;1.52;;
47778;SDS011;33538;48.432;11.350;2022-11-23T03:30:03;3.20;;;1.77;;
47778;SDS011;33538;48.432;11.350;2022-11-23T03:32:31;3.22;;;1.65;;
47778;SDS011;33538;48.432;11.350;2022-11-23T03:34:59;4.53;;;1.75;;
47778;SDS011;33538;48.432;11.350;2022-11-23T03:37:26;2.53;;;1.83;;
47778;SDS011;33538;48.432;11.350;2022-11-23T03:39:53;5.22;;;1.63;;
47778;SDS011;33538;48.432;11.350;2022-11-23T03:42:20;5.78;;;1.77;;
47778;SDS011;33538;48.432;11.350;2022-11-23T03:44:47;3.42;;;2.03;;
47778;SDS011;33538;48.432;11.350;2022-11-23T03:47:13;4.43;;;1.73;;
47778;SDS011;33538;48.432;11.350;2022-11-23T03:49:40;3.40;;;1.60;;
47778;SDS011;33538;48.432;11.350;2022-11-23T03:52:08;2.88;;;2.38;;
47778;SDS011;33538;48.432;11.350;2022-11-23T03:54:35;3.72;;;2.13;;
47778;SDS011;33538;48.432;11.350;2022-11-23T03:57:02;3.70;;;2.20;;
47778;SDS011;33538;48.432;11.350;2022-11-23T03:59:29;5.60;;;2.05;;
47778;SDS011;33538;48.432;11.350;2022-11-23T04:01:56;3.08;;;1.90;;
47778;SDS011;33538;48.432;11.350;2022-11-23T04:04:23;4.85;;;2.35;;
47778;SDS011;33538;48.432;11.350;2022-11-23T04:06:49;3.78;;;1.95;;
47778;SDS011;33538;48.432;11.350;2022-11-23T04:09:17;2.53;;;1.80;;
47778;SDS011;33538;48.432;11.350;2022-11-23T04:11:44;3.45;;;1.83;;
47778;SDS011;33538;48.432;11.350;2022-11-23T04:14:11;2.65;;;1.95;;
47778;SDS011;33538;48.432;11.350;2022-11-23T04:16:38;3.05;;;1.35;;
47778;SDS011;33538;48.432;11.350;2022-11-23T04:19:05;3.17;;;1.75;;
47778;SDS011;33538;48.432;11.350;2022-11-23T04:21:31;3.30;;;1.77;;
47778;SDS011;33538;48.432;11.350;2022-11-23T04:23:58;2.58;;;1.70;;
47778;SDS011;33538;48.432;11.350;2022-11-23T04:26:26;1.63;;;1.50;;
47778;SDS011;33538;48.432;11.350;2022-11-23T04:28:53;3.97;;;2.03;;
47778;SDS011;33538;48.432;11.350;2022-11-23T04:31:20;4.35;;;1.80;;
47778;SDS011;33538;48.432;11.350;2022-11-23T04:33:46;2.88;;;1.50;;
47778;SDS011;33538;48.432;11.350;2022-11-23T04:36:13;2.47;;;1.50;;
47778;SDS011;33538;48.432;11.350;2022-11-23T04:38:40;6.05;;;1.98;;
47778;SDS011;33538;48.432;11.350;2022-11-23T04:41:07;3.63;;;1.45;;
47778;SDS011;33538;48.432;11.350;2022-11-23T04:43:35;6.07;;;2.00;;
47778;SDS011;33538;48.432;11.350;2022-11-23T04:46:01;4.88;;;2.13;;
47778;SDS011;33538;48.432;11.350;2022-11-23T04:48:28;3.38;;;1.85;;
47778;SDS011;33538;48.432;11.350;2022-11-23T04:50:55;5.22;;;2.17;;
47778;SDS011;33538;48.432;11.350;2022-11-23T04:53:22;16.75;;;6.50;;
47778;SDS011;33538;48.432;11.350;2022-11-23T04:55:49;10.85;;;4.25;;
47778;SDS011;33538;48.432;11.350;2022-11-23T04:58:16;9.18;;;3.95;;
47778;SDS011;33538;48.432;11.350;2022-11-23T05:00:44;4.63;;;3.20;;
47778;SDS011;33538;48.432;11.350;2022-11-23T05:03:11;9.48;;;4.10;;
47778;SDS011;33538;48.432;11.350;2022-11-23T05:05:37;8.13;;;4.15;;
47778;SDS011;33538;48.432;11.350;2022-11-23T05:08:04;7.82;;;3.92;;
47778;SDS011;33538;48.432;11.350;2022-11-23T05:10:31;6.45;;;2.97;;
47778;SDS011;33538;48.432;11.350;2022-11-23T05:12:58;5.30;;;2.65;;
47778;SDS011;33538;48.432;11.350;2022-11-23T05:15:25;5.88;;;2.78;;
47778;SDS011;33538;48.432;11.350;2022-11-23T05:17:53;3.80;;;2.42;;
47778;SDS011;33538;48.432;11.350;2022-11-23T05:20:26;3.03;;;2.00;;
47778;SDS011;33538;48.432;11.350;2022-11-23T05:22:52;3.13;;;2.15;;
47778;SDS011;33538;48.432;11.350;2022-11-23T05:25:19;4.13;;;2.42;;
47778;SDS011;33538;48.432;11.350;2022-11-23T05:27:46;4.38;;;3.03;;
47778;SDS011;33538;48.432;11.350;2022-11-23T05:30:13;7.57;;;3.20;;
47778;SDS011;33538;48.432;11.350;2022-11-23T05:32:40;8.85;;;3.42;;
47778;SDS011;33538;48.432;11.350;2022-11-23T05:35:08;4.05;;;2.45;;
47778;SDS011;33538;48.432;11.350;2022-11-23T05:37:36;2.45;;;1.92;;
47778;SDS011;33538;48.432;11.350;2022-11-23T05:40:03;3.15;;;2.10;;
47778;SDS011;33538;48.432;11.350;2022-11-23T05:42:31;8.07;;;2.70;;
47778;SDS011;33538;48.432;11.350;2022-11-23T05:44:58;3.63;;;1.50;;
47778;SDS011;33538;48.432;11.350;2022-11-23T05:47:25;2.58;;;1.50;;
47778;SDS011;33538;48.432;11.350;2022-11-23T05:49:51;2.10;;;1.50;;
47778;SDS011;33538;48.432;11.350;2022-11-23T05:52:20;2.70;;;1.95;;
47778;SDS011;33538;48.432;11.350;2022-11-23T05:54:46;2.72;;;1.85;;
47778;SDS011;33538;48.432;11.350;2022-11-23T05:57:13;3.58;;;2.08;;
47778;SDS011;33538;48.432;11.350;2022-11-23T05:59:40;3.88;;;2.28;;
47778;SDS011;33538;48.432;11.350;2022-11-23T06:02:07;1.95;;;1.60;;
47778;SDS011;33538;48.432;11.350;2022-11-23T06:04:33;1.48;;;1.30;;
47778;SDS011;33538;48.432;11.350;2022-11-23T06:07:00;3.20;;;1.48;;
47778;SDS011;33538;48.432;11.350;2022-11-23T06:09:28;4.53;;;2.10;;
47778;SDS011;33538;48.432;11.350;2022-11-23T06:11:56;4.82;;;2.30;;
47778;SDS011;33538;48.432;11.350;2022-11-23T06:14:23;6.30;;;2.70;;
47778;SDS011;33538;48.432;11.350;2022-11-23T06:16:49;2.95;;;2.08;;
47778;SDS011;33538;48.432;11.350;2022-11-23T06:19:16;4.47;;;2.60;;
47778;SDS011;33538;48.432;11.350;2022-11-23T06:21:43;8.40;;;4.38;;
47778;SDS011;33538;48.432;11.350;2022-11-23T06:24:15;6.95;;;3.58;;
47778;SDS011;33538;48.432;11.350;2022-11-23T06:26:43;8.45;;;3.97;;
47778;SDS011;33538;48.432;11.350;2022-11-23T06:29:10;4.80;;;2.97;;
47778;SDS011;33538;48.432;11.350;2022-11-23T06:31:37;5.68;;;3.40;;
47778;SDS011;33538;48.432;11.350;2022-11-23T06:34:03;7.63;;;3.17;;
47778;SDS011;33538;48.432;11.350;2022-11-23T06:36:30;4.82;;;2.70;;
47778;SDS011;33538;48.432;11.350;2022-11-23T06:38:57;4.72;;;2.80;;
47778;SDS011;33538;48.432;11.350;2022-11-23T06:41:24;4.18;;;2.15;;
47778;SDS011;33538;48.432;11.350;2022-11-23T06:43:58;3.58;;;1.70;;
47778;SDS011;33538;48.432;11.350;2022-11-23T06:46:25;2.53;;;1.60;;
47778;SDS011;33538;48.432;11.350;2022-11-23T06:48:52;3.33;;;1.67;;
47778;SDS011;33538;48.432;11.350;2022-11-23T06:51:19;3.00;;;1.95;;
47778;SDS011;33538;48.432;11.350;2022-11-23T06:53:45;2.90;;;1.80;;
47778;SDS011;33538;48.432;11.350;2022-11-23T06:56:12;3.40;;;1.95;;
47778;SDS011;33538;48.432;11.350;2022-11-23T06:58:39;2.70;;;1.67;;
47778;SDS011;33538;48.432;11.350;2022-11-23T07:01:07;2.50;;;1.80;;
47778;SDS011;33538;48.432;11.350;2022-11-23T07:03:35;1.85;;;1.40;;
47778;SDS011;33538;48.432;11.350;2022-11-23T07:06:03;3.00;;;1.40;;
47778;SDS011;33538;48.432;11.350;2022-11-23T07:08:31;3.20;;;1.80;;
47778;SDS011;33538;48.432;11.350;2022-11-23T07:10:58;6.63;;;2.65;;
47778;SDS011;33538;48.432;11.350;2022-11-23T07:13:26;6.38;;;2.58;;
47778;SDS011;33538;48.432;11.350;2022-11-23T07:15:53;4.18;;;1.70;;
47778;SDS011;33538;48.432;11.350;2022-11-23T07:18:21;5.18;;;2.25;;
47778;SDS011;33538;48.432;11.350;2022-11-23T07:20:47;6.93;;;2.78;;
47778;SDS011;33538;48.432;11.350;2022-11-23T07:23:14;5.63;;;2.80;;
47778;SDS011;33538;48.432;11.350;2022-11-23T07:25:41;3.95;;;1.98;;
47778;SDS011;33538;48.432;11.350;2022-11-23T07:28:09;4.72;;;2.55;;
47778;SDS011;33538;48.432;11.350;2022-11-23T07:30:38;6.32;;;2.70;;
47778;SDS011;33538;48.432;11.350;2022-11-23T07:33:05;6.65;;;3.22;;
47778;SDS011;33538;48.432;11.350;2022-11-23T07:35:34;8.23;;;4.05;;
47778;SDS011;33538;48.432;11.350;2022-11-23T07:38:02;10.45;;;4.05;;
47778;SDS011;33538;48.432;11.350;2022-11-23T07:40:29;6.28;;;3.30;;
47778;SDS011;33538;48.432;11.350;2022-11-23T07:42:58;6.00;;;3.05;;
47778;SDS011;33538;48.432;11.350;2022-11-23T07:45:25;6.75;;;3.40;;
47778;SDS011;33538;48.432;11.350;2022-11-23T07:47:56;8.32;;;3.45;;
47778;SDS011;33538;48.432;11.350;2022-11-23T07:50:24;6.72;;;3.58;;
47778;SDS011;33538;48.432;11.350;2022-11-23T07:52:52;9.10;;;5.50;;
47778;SDS011;33538;48.432;11.350;2022-11-23T07:55:19;10.52;;;4.97;;
47778;SDS011;33538;48.432;11.350;2022-11-23T07:57:46;7.78;;;4.32;;
47778;SDS011;33538;48.432;11.350;2022-11-23T08:00:13;8.55;;;4.60;;
47778;SDS011;33538;48.432;11.350;2022-11-23T08:02:40;8.23;;;4.60;;
47778;SDS011;33538;48.432;11.350;2022-11-23T08:05:27;5.97;;;3.40;;
47778;SDS011;33538;48.432;11.350;2022-11-23T08:07:58;5.07;;;2.90;;
47778;SDS011;33538;48.432;11.350;2022-11-23T08:10:25;6.95;;;3.47;;
47778;SDS011;33538;48.432;11.350;2022-11-23T08:12:52;6.50;;;3.78;;
47778;SDS011;33538;48.432;11.350;2022-11-23T08:15:18;6.13;;;3.67;;
47778;SDS011;33538;48.432;11.350;2022-11-23T08:17:45;6.00;;;3.28;;
47778;SDS011;33538;48.432;11.350;2022-11-23T08:20:12;5.25;;;3.53;;
47778;SDS011;33538;48.432;11.350;2022-11-23T08:22:39;4.82;;;2.88;;
47778;SDS011;33538;48.432;11.350;2022-11-23T08:25:08;4.60;;;3.25;;
47778;SDS011;33538;48.432;11.350;2022-11-23T08:27:35;9.05;;;3.33;;
47778;SDS011;33538;48.432;11.350;2022-11-23T08:30:01;5.93;;;3.17;;
47778;SDS011;33538;48.432;11.350;2022-11-23T08:32:29;6.90;;;3.92;;
47778;SDS011;33538;48.432;11.350;2022-11-23T08:34:55;6.18;;;3.53;;
47778;SDS011;33538;48.432;11.350;2022-11-23T08:37:22;5.35;;;3.28;;
47778;SDS011;33538;48.432;11.350;2022-11-23T08:39:49;4.90;;;3.00;;
47778;SDS011;33538;48.432;11.350;2022-11-23T08:42:17;6.13;;;3.20;;
47778;SDS011;33538;48.432;11.350;2022-11-23T08:44:44;16.33;;;7.25;;
47778;SDS011;33538;48.432;11.350;2022-11-23T08:47:11;6.15;;;4.05;;
47778;SDS011;33538;48.432;11.350;2022-11-23T08:49:37;8.48;;;4.95;;
47778;SDS011;33538;48.432;11.350;2022-11-23T08:52:04;28.80;;;12.20;;
47778;SDS011;33538;48.432;11.350;2022-11-23T08:54:31;21.33;;;9.05;;
47778;SDS011;33538;48.432;11.350;2022-11-23T08:56:58;23.45;;;9.73;;
47778;SDS011;33538;48.432;11.350;2022-11-23T08:59:26;11.93;;;4.70;;
47778;SDS011;33538;48.432;11.350;2022-11-23T09:01:53;8.20;;;3.22;;
47778;SDS011;33538;48.432;11.350;2022-11-23T09:04:20;20.13;;;4.72;;
47778;SDS011;33538;48.432;11.350;2022-11-23T09:06:46;21.02;;;4.97;;
47778;SDS011;33538;48.432;11.350;2022-11-23T09:09:13;10.40;;;3.70;;
47778;SDS011;33538;48.432;11.350;2022-11-23T09:11:40;8.90;;;3.85;;
47778;SDS011;33538;48.432;11.350;2022-11-23T09:14:07;7.70;;;3.58;;
47778;SDS011;33538;48.432;11.350;2022-11-23T09:16:35;9.77;;;4.25;;
47778;SDS011;33538;48.432;11.350;2022-11-23T09:19:02;8.85;;;3.42;;
47778;SDS011;33538;48.432;11.350;2022-11-23T09:21:28;5.30;;;3.03;;
47778;SDS011;33538;48.432;11.350;2022-11-23T09:23:55;5.00;;;2.85;;
47778;SDS011;33538;48.432;11.350;2022-11-23T09:26:22;5.85;;;3.05;;
47778;SDS011;33538;48.432;11.350;2022-11-23T09:28:49;5.65;;;2.65;;
47778;SDS011;33538;48.432;11.350;2022-11-23T09:31:16;3.75;;;2.38;;
47778;SDS011;33538;48.432;11.350;2022-11-23T09:33:44;4.28;;;2.08;;
47778;SDS011;33538;48.432;11.350;2022-11-23T09:36:11;3.78;;;2.17;;
47778;SDS011;33538;48.432;11.350;2022-11-23T09:38:38;4.13;;;2.20;;
47778;SDS011;33538;48.432;11.350;2022-11-23T09:41:29;2.78;;;2.05;;
47778;SDS011;33538;48.432;11.350;2022-11-23T09:44:19;3.70;;;2.03;;
47778;SDS011;33538;48.432;11.350;2022-11-23T09:46:55;6.07;;;1.75;;
47778;SDS011;33538;48.432;11.350;2022-11-23T09:49:37;3.72;;;1.73;;
47778;SDS011;33538;48.432;11.350;2022-11-23T09:52:12;2.30;;;1.67;;
47778;SDS011;33538;48.432;11.350;2022-11-23T09:54:43;5.28;;;2.08;;
47778;SDS011;33538;48.432;11.350;2022-11-23T09:57:11;2.63;;;2.15;;
47778;SDS011;33538;48.432;11.350;2022-11-23T09:59:43;7.93;;;2.10;;
47778;SDS011;33538;48.432;11.350;2022-11-23T10:02:17;2.63;;;1.65;;
47778;SDS011;33538;48.432;11.350;2022-11-23T10:04:47;5.40;;;1.75;;
47778;SDS011;33538;48.432;11.350;2022-11-23T10:07:20;5.03;;;2.08;;
47778;SDS011;33538;48.432;11.350;2022-11-23T10:10:08;6.32;;;2.42;;
47778;SDS011;33538;48.432;11.350;2022-11-23T10:12:46;5.07;;;1.90;;
47778;SDS011;33538;48.432;11.350;2022-11-23T10:15:19;6.55;;;1.65;;
47778;SDS011;33538;48.432;11.350;2022-11-23T10:17:57;4.40;;;2.10;;
47778;SDS011;33538;48.432;11.350;2022-11-23T10:20:45;6.13;;;1.40;;
47778;SDS011;33538;48.432;11.350;2022-11-23T10:23:24;3.22;;;1.50;;
47778;SDS011;33538;48.432;11.350;2022-11-23T10:26:01;4.20;;;1.58;;
47778;SDS011;33538;48.432;11.350;2022-11-23T10:28:28;2.50;;;1.60;;
47778;SDS011;33538;48.432;11.350;2022-11-23T10:31:00;3.72;;;1.40;;
47778;SDS011;33538;48.432;11.350;2022-11-23T10:33:37;3.45;;;1.25;;
47778;SDS011;33538;48.432;11.350;2022-11-23T10:36:09;3.13;;;1.40;;
47778;SDS011;33538;48.432;11.350;2022-11-23T10:38:36;2.08;;;1.10;;
47778;SDS011;33538;48.432;11.350;2022-11-23T10:41:04;5.10;;;1.50;;
47778;SDS011;33538;48.432;11.350;2022-11-23T10:43:34;3.13;;;1.73;;
47778;SDS011;33538;48.432;11.350;2022-11-23T10:46:26;1.45;;;1.20;;
47778;SDS011;33538;48.432;11.350;2022-11-23T10:48:55;2.53;;;1.40;;
47778;SDS011;33538;48.432;11.350;2022-11-23T10:51:36;6.13;;;1.60;;
47778;SDS011;33538;48.432;11.350;2022-11-23T10:54:05;5.32;;;1.60;;
47778;SDS011;33538;48.432;11.350;2022-11-23T10:56:45;4.43;;;1.63;;
47778;SDS011;33538;48.432;11.350;2022-11-23T10:59:24;2.17;;;1.60;;
47778;SDS011;33538;48.432;11.350;2022-11-23T11:02:00;3.47;;;1.70;;
47778;SDS011;33538;48.432;11.350;2022-11-23T11:04:36;2.25;;;1.27;;
47778;SDS011;33538;48.432;11.350;2022-11-23T11:07:12;2.55;;;1.50;;
47778;SDS011;33538;48.432;11.350;2022-11-23T11:09:47;2.08;;;1.30;;
47778;SDS011;33538;48.432;11.350;2022-11-23T11:12:16;3.40;;;2.00;;
47778;SDS011;33538;48.432;11.350;2022-11-23T11:14:53;1.45;;;1.02;;
47778;SDS011;33538;48.432;11.350;2022-11-23T11:17:25;2.20;;;1.40;;
47778;SDS011;33538;48.432;11.350;2022-11-23T11:19:53;6.10;;;1.40;;
47778;SDS011;33538;48.432;11.350;2022-11-23T11:25:24;2.90;;;1.25;;
47778;SDS011;33538;48.432;11.350;2022-11-23T11:27:53;1.75;;;1.10;;
47778;SDS011;33538;48.432;11.350;2022-11-23T11:30:21;5.57;;;1.52;;
47778;SDS011;33538;48.432;11.350;2022-11-23T11:32:51;1.90;;;1.00;;
47778;SDS011;33538;48.432;11.350;2022-11-23T11:35:26;2.10;;;1.20;;
47778;SDS011;33538;48.432;11.350;2022-11-23T11:37:59;0.70;;;0.70;;
47778;SDS011;33538;48.432;11.350;2022-11-23T11:40:31;3.67;;;1.50;;
47778;SDS011;33538;48.432;11.350;2022-11-23T11:43:01;5.03;;;1.90;;
47778;SDS011;33538;48.432;11.350;2022-11-23T11:45:32;3.08;;;1.20;;
47778;SDS011;33538;48.432;11.350;2022-11-23T11:48:03;2.28;;;1.13;;
47778;SDS011;33538;48.432;11.350;2022-11-23T11:50:39;1.50;;;0.75;;
47778;SDS011;33538;48.432;11.350;2022-11-23T11:53:14;2.78;;;0.90;;
47778;SDS011;33538;48.432;11.350;2022-11-23T11:55:45;1.27;;;0.77;;
47778;SDS011;33538;48.432;11.350;2022-11-23T11:58:17;3.67;;;1.02;;
47778;SDS011;33538;48.432;11.350;2022-11-23T12:00:47;2.70;;;1.13;;
47778;SDS011;33538;48.432;11.350;2022-11-23T12:03:18;3.22;;;0.80;;
47778;SDS011;33538;48.432;11.350;2022-11-23T12:05:50;2.95;;;1.10;;
47778;SDS011;33538;48.432;11.350;2022-11-23T12:08:21;3.83;;;1.10;;
47778;SDS011;33538;48.432;11.350;2022-11-23T12:10:56;2.53;;;0.80;;
47778;SDS011;33538;48.432;11.350;2022-11-23T12:13:26;1.42;;;0.98;;
47778;SDS011;33538;48.432;11.350;2022-11-23T12:15:54;2.05;;;0.85;;
47778;SDS011;33538;48.432;11.350;2022-11-23T12:18:32;2.28;;;0.88;;
47778;SDS011;33538;48.432;11.350;2022-11-23T12:21:12;2.03;;;0.80;;
47778;SDS011;33538;48.432;11.350;2022-11-23T12:24:03;2.85;;;0.90;;
47778;SDS011;33538;48.432;11.350;2022-11-23T12:26:38;0.60;;;0.50;;
47778;SDS011;33538;48.432;11.350;2022-11-23T12:29:23;3.13;;;1.08;;
47778;SDS011;33538;48.432;11.350;2022-11-23T12:32:07;1.15;;;0.68;;
47778;SDS011;33538;48.432;11.350;2022-11-23T12:34:44;0.77;;;0.75;;
47778;SDS011;33538;48.432;11.350;2022-11-23T12:37:27;2.35;;;0.60;;
47778;SDS011;33538;48.432;11.350;2022-11-23T12:40:11;3.93;;;0.70;;
47778;SDS011;33538;48.432;11.350;2022-11-23T12:42:56;2.40;;;0.55;;
47778;SDS011;33538;48.432;11.350;2022-11-23T12:48:17;5.50;;;1.20;;
47778;SDS011;33538;48.432;11.350;2022-11-23T12:50:54;0.90;;;0.60;;
47778;SDS011;33538;48.432;11.350;2022-11-23T12:53:31;0.98;;;0.60;;
47778;SDS011;33538;48.432;11.350;2022-11-23T12:56:10;0.85;;;0.57;;
47778;SDS011;33538;48.432;11.350;2022-11-23T12:58:45;1.13;;;0.70;;
47778;SDS011;33538;48.432;11.350;2022-11-23T13:01:15;0.77;;;0.57;;
47778;SDS011;33538;48.432;11.350;2022-11-23T13:03:51;1.10;;;0.70;;
47778;SDS011;33538;48.432;11.350;2022-11-23T13:06:41;3.92;;;0.82;;
47778;SDS011;33538;48.432;11.350;2022-11-23T13:10:03;3.63;;;0.80;;
47778;SDS011;33538;48.432;11.350;2022-11-23T13:12:45;2.67;;;0.80;;
47778;SDS011;33538;48.432;11.350;2022-11-23T13:15:45;9.30;;;2.33;;
47778;SDS011;33538;48.432;11.350;2022-11-23T13:18:51;1.55;;;1.00;;
47778;SDS011;33538;48.432;11.350;2022-11-23T13:21:33;3.80;;;1.30;;
47778;SDS011;33538;48.432;11.350;2022-11-23T13:24:02;5.35;;;2.38;;
47778;SDS011;33538;48.432;11.350;2022-11-23T13:26:30;1.88;;;1.10;;
47778;SDS011;33538;48.432;11.350;2022-11-23T13:28:58;5.47;;;2.30;;
47778;SDS011;33538;48.432;11.350;2022-11-23T13:31:26;2.25;;;1.17;;
47778;SDS011;33538;48.432;11.350;2022-11-23T13:33:55;2.90;;;1.27;;
47778;SDS011;33538;48.432;11.350;2022-11-23T13:36:33;3.15;;;0.50;;
47778;SDS011;33538;48.432;11.350;2022-11-23T13:42:26;1.80;;;0.70;;
47778;SDS011;33538;48.432;11.350;2022-11-23T13:45:19;3.95;;;1.60;;
47778;SDS011;33538;48.432;11.350;2022-11-23T13:48:02;0.90;;;0.63;;
47778;SDS011;33538;48.432;11.350;2022-11-23T13:50:31;0.82;;;0.60;;
47778;SDS011;33538;48.432;11.350;2022-11-23T13:52:59;3.25;;;1.15;;
47778;SDS011;33538;48.432;11.350;2022-11-23T13:55:29;6.75;;;1.30;;
47778;SDS011;33538;48.432;11.350;2022-11-23T14:01:06;1.98;;;1.05;;
47778;SDS011;33538;48.432;11.350;2022-11-23T14:03:49;2.75;;;1.38;;
47778;SDS011;33538;48.432;11.350;2022-11-23T14:06:19;4.40;;;1.83;;
47778;SDS011;33538;48.432;11.350;2022-11-23T14:09:03;6.18;;;2.42;;
47778;SDS011;33538;48.432;11.350;2022-11-23T14:11:38;3.03;;;1.60;;
47778;SDS011;33538;48.432;11.350;2022-11-23T14:14:24;2.08;;;0.90;;
47778;SDS011;33538;48.432;11.350;2022-11-23T14:17:05;3.40;;;1.02;;
47778;SDS011;33538;48.432;11.350;2022-11-23T14:19:59;2.00;;;0.88;;
47778;SDS011;33538;48.432;11.350;2022-11-23T14:22:44;0.88;;;0.63;;
47778;SDS011;33538;48.432;11.350;2022-11-23T14:25:29;2.33;;;0.80;;
47778;SDS011;33538;48.432;11.350;2022-11-23T14:28:05;3.05;;;0.73;;
47778;SDS011;33538;48.432;11.350;2022-11-23T14:30:45;3.67;;;0.93;;
47778;SDS011;33538;48.432;11.350;2022-11-23T14:33:28;2.10;;;0.77;;
47778;SDS011;33538;48.432;11.350;2022-11-23T14:36:02;1.05;;;0.60;;
47778;SDS011;33538;48.432;11.350;2022-11-23T14:38:46;1.38;;;0.82;;
47778;SDS011;33538;48.432;11.350;2022-11-23T14:41:26;0.50;;;0.43;;
47778;SDS011;33538;48.432;11.350;2022-11-23T14:43:55;3.67;;;1.65;;
47778;SDS011;33538;48.432;11.350;2022-11-23T14:46:25;4.50;;;1.42;;
47778;SDS011;33538;48.432;11.350;2022-11-23T14:49:01;3.95;;;1.30;;
47778;SDS011;33538;48.432;11.350;2022-11-23T14:51:29;7.38;;;0.98;;
47778;SDS011;33538;48.432;11.350;2022-11-23T14:53:58;1.90;;;0.73;;
47778;SDS011;33538;48.432;11.350;2022-11-23T14:56:29;17.65;;;6.63;;
47778;SDS011;33538;48.432;11.350;2022-11-23T14:58:58;2.28;;;1.30;;
47778;SDS011;33538;48.432;11.350;2022-11-23T15:01:28;1.77;;;1.13;;
47778;SDS011;33538;48.432;11.350;2022-11-23T15:03:58;3.17;;;1.23;;